sensor_id;sensor_type;location;lat;lon;timestamp;P1;durP1;ratioP1;P2;durP2;ratioP2
17424;SDS011;8830;50.978;5.058;2022-09-09T00:00:54;5.37;;;1.00;;
17424;SDS011;8830;50.978;5.058;2022-09-09T00:03:26;3.20;;;0.90;;
17424;SDS011;8830;50.978;5.058;2022-09-09T00:05:56;3.37;;;0.87;;
17424;SDS011;8830;50.978;5.058;2022-09-09T00:08:31;3.77;;;0.80;;
17424;SDS011;8830;50.978;5.058;2022-09-09T00:11:08;2.60;;;0.90;;
17424;SDS011;8830;50.978;5.058;2022-09-09T00:13:40;1.73;;;0.87;;
17424;SDS011;8830;50.978;5.058;2022-09-09T00:16:15;2.00;;;0.80;;
17424;SDS011;8830;50.978;5.058;2022-09-09T00:18:47;1.57;;;0.80;;
17424;SDS011;8830;50.978;5.058;2022-09-09T00:21:23;2.73;;;0.77;;
17424;SDS011;8830;50.978;5.058;2022-09-09T00:23:55;2.70;;;0.70;;
17424;SDS011;8830;50.978;5.058;2022-09-09T00:26:25;1.23;;;0.80;;
17424;SDS011;8830;50.978;5.058;2022-09-09T00:29:03;2.20;;;0.90;;
17424;SDS011;8830;50.978;5.058;2022-09-09T00:31:41;1.67;;;0.80;;
17424;SDS011;8830;50.978;5.058;2022-09-09T00:34:09;2.00;;;0.63;;
17424;SDS011;8830;50.978;5.058;2022-09-09T00:36:39;3.73;;;0.77;;
17424;SDS011;8830;50.978;5.058;2022-09-09T00:39:12;2.83;;;1.20;;
17424;SDS011;8830;50.978;5.058;2022-09-09T00:41:48;4.33;;;1.40;;
17424;SDS011;8830;50.978;5.058;2022-09-09T00:44:27;1.83;;;1.13;;
17424;SDS011;8830;50.978;5.058;2022-09-09T00:47:12;2.17;;;0.90;;
17424;SDS011;8830;50.978;5.058;2022-09-09T00:49:50;3.23;;;1.13;;
17424;SDS011;8830;50.978;5.058;2022-09-09T00:52:28;1.43;;;0.73;;
17424;SDS011;8830;50.978;5.058;2022-09-09T00:55:04;3.30;;;0.90;;
17424;SDS011;8830;50.978;5.058;2022-09-09T00:57:38;2.93;;;0.80;;
17424;SDS011;8830;50.978;5.058;2022-09-09T01:00:17;1.10;;;1.00;;
17424;SDS011;8830;50.978;5.058;2022-09-09T01:02:49;3.63;;;1.20;;
17424;SDS011;8830;50.978;5.058;2022-09-09T01:05:30;3.00;;;0.83;;
17424;SDS011;8830;50.978;5.058;2022-09-09T01:08:05;1.60;;;0.80;;
17424;SDS011;8830;50.978;5.058;2022-09-09T01:10:47;2.07;;;1.03;;
17424;SDS011;8830;50.978;5.058;2022-09-09T01:13:20;3.30;;;0.90;;
17424;SDS011;8830;50.978;5.058;2022-09-09T01:15:50;4.47;;;1.07;;
17424;SDS011;8830;50.978;5.058;2022-09-09T01:18:19;3.30;;;1.00;;
17424;SDS011;8830;50.978;5.058;2022-09-09T01:20:49;3.30;;;1.27;;
17424;SDS011;8830;50.978;5.058;2022-09-09T01:23:36;4.10;;;1.43;;
17424;SDS011;8830;50.978;5.058;2022-09-09T01:26:15;2.13;;;1.07;;
17424;SDS011;8830;50.978;5.058;2022-09-09T01:28:46;4.60;;;1.10;;
17424;SDS011;8830;50.978;5.058;2022-09-09T01:31:15;3.73;;;1.40;;
17424;SDS011;8830;50.978;5.058;2022-09-09T01:33:46;2.97;;;1.37;;
17424;SDS011;8830;50.978;5.058;2022-09-09T01:36:15;2.07;;;0.80;;
17424;SDS011;8830;50.978;5.058;2022-09-09T01:38:47;3.17;;;1.60;;
17424;SDS011;8830;50.978;5.058;2022-09-09T01:41:16;4.47;;;1.07;;
17424;SDS011;8830;50.978;5.058;2022-09-09T01:43:43;4.80;;;1.40;;
17424;SDS011;8830;50.978;5.058;2022-09-09T01:46:10;4.70;;;1.30;;
17424;SDS011;8830;50.978;5.058;2022-09-09T01:48:39;2.23;;;0.90;;
17424;SDS011;8830;50.978;5.058;2022-09-09T01:51:08;3.03;;;1.23;;
17424;SDS011;8830;50.978;5.058;2022-09-09T01:53:35;2.57;;;1.40;;
17424;SDS011;8830;50.978;5.058;2022-09-09T01:56:05;6.30;;;1.57;;
17424;SDS011;8830;50.978;5.058;2022-09-09T01:58:47;2.73;;;1.10;;
17424;SDS011;8830;50.978;5.058;2022-09-09T02:01:24;2.40;;;1.13;;
17424;SDS011;8830;50.978;5.058;2022-09-09T02:03:57;2.73;;;1.20;;
17424;SDS011;8830;50.978;5.058;2022-09-09T02:06:30;4.17;;;1.57;;
17424;SDS011;8830;50.978;5.058;2022-09-09T02:09:03;2.60;;;1.20;;
17424;SDS011;8830;50.978;5.058;2022-09-09T02:11:33;9.70;;;1.50;;
17424;SDS011;8830;50.978;5.058;2022-09-09T02:14:02;4.17;;;1.20;;
17424;SDS011;8830;50.978;5.058;2022-09-09T02:16:35;1.93;;;1.07;;
17424;SDS011;8830;50.978;5.058;2022-09-09T02:19:07;6.13;;;1.50;;
17424;SDS011;8830;50.978;5.058;2022-09-09T02:21:38;2.40;;;1.10;;
17424;SDS011;8830;50.978;5.058;2022-09-09T02:24:08;4.57;;;1.10;;
17424;SDS011;8830;50.978;5.058;2022-09-09T02:26:38;5.57;;;1.30;;
17424;SDS011;8830;50.978;5.058;2022-09-09T02:29:09;7.13;;;1.67;;
17424;SDS011;8830;50.978;5.058;2022-09-09T02:31:39;2.10;;;1.27;;
17424;SDS011;8830;50.978;5.058;2022-09-09T02:34:08;4.00;;;1.40;;
17424;SDS011;8830;50.978;5.058;2022-09-09T02:36:37;4.77;;;2.03;;
17424;SDS011;8830;50.978;5.058;2022-09-09T02:39:08;4.97;;;1.50;;
17424;SDS011;8830;50.978;5.058;2022-09-09T02:41:37;3.17;;;1.40;;
17424;SDS011;8830;50.978;5.058;2022-09-09T02:44:09;4.07;;;1.30;;
17424;SDS011;8830;50.978;5.058;2022-09-09T02:46:42;4.10;;;1.50;;
17424;SDS011;8830;50.978;5.058;2022-09-09T02:49:33;3.10;;;1.30;;
17424;SDS011;8830;50.978;5.058;2022-09-09T02:52:07;2.60;;;1.60;;
17424;SDS011;8830;50.978;5.058;2022-09-09T02:54:39;4.80;;;1.70;;
17424;SDS011;8830;50.978;5.058;2022-09-09T02:57:08;7.63;;;1.70;;
17424;SDS011;8830;50.978;5.058;2022-09-09T02:59:39;5.07;;;1.77;;
17424;SDS011;8830;50.978;5.058;2022-09-09T03:02:07;5.23;;;2.03;;
17424;SDS011;8830;50.978;5.058;2022-09-09T03:04:35;5.13;;;1.40;;
17424;SDS011;8830;50.978;5.058;2022-09-09T03:07:02;6.23;;;2.13;;
17424;SDS011;8830;50.978;5.058;2022-09-09T03:09:29;3.57;;;1.70;;
17424;SDS011;8830;50.978;5.058;2022-09-09T03:11:57;1.90;;;1.30;;
17424;SDS011;8830;50.978;5.058;2022-09-09T03:14:25;3.27;;;1.63;;
17424;SDS011;8830;50.978;5.058;2022-09-09T03:16:54;6.50;;;1.60;;
17424;SDS011;8830;50.978;5.058;2022-09-09T03:19:21;3.23;;;1.60;;
17424;SDS011;8830;50.978;5.058;2022-09-09T03:21:48;5.47;;;1.63;;
17424;SDS011;8830;50.978;5.058;2022-09-09T03:24:16;4.33;;;1.40;;
17424;SDS011;8830;50.978;5.058;2022-09-09T03:26:43;4.50;;;1.73;;
17424;SDS011;8830;50.978;5.058;2022-09-09T03:29:10;2.30;;;1.37;;
17424;SDS011;8830;50.978;5.058;2022-09-09T03:31:38;5.83;;;1.60;;
17424;SDS011;8830;50.978;5.058;2022-09-09T03:34:07;5.97;;;1.97;;
17424;SDS011;8830;50.978;5.058;2022-09-09T03:36:34;7.80;;;1.60;;
17424;SDS011;8830;50.978;5.058;2022-09-09T03:39:02;4.27;;;1.83;;
17424;SDS011;8830;50.978;5.058;2022-09-09T03:41:30;4.33;;;1.33;;
17424;SDS011;8830;50.978;5.058;2022-09-09T03:43:57;2.83;;;1.30;;
17424;SDS011;8830;50.978;5.058;2022-09-09T03:46:25;3.20;;;1.30;;
17424;SDS011;8830;50.978;5.058;2022-09-09T03:48:52;3.73;;;1.27;;
17424;SDS011;8830;50.978;5.058;2022-09-09T03:51:20;4.67;;;1.33;;
17424;SDS011;8830;50.978;5.058;2022-09-09T03:53:47;6.70;;;1.80;;
17424;SDS011;8830;50.978;5.058;2022-09-09T03:56:15;4.50;;;1.80;;
17424;SDS011;8830;50.978;5.058;2022-09-09T03:58:42;7.00;;;1.90;;
17424;SDS011;8830;50.978;5.058;2022-09-09T04:01:10;5.80;;;1.87;;
17424;SDS011;8830;50.978;5.058;2022-09-09T04:03:39;4.93;;;1.90;;
17424;SDS011;8830;50.978;5.058;2022-09-09T04:06:08;4.03;;;1.40;;
17424;SDS011;8830;50.978;5.058;2022-09-09T04:08:39;5.40;;;1.80;;
17424;SDS011;8830;50.978;5.058;2022-09-09T04:11:06;6.80;;;1.80;;
17424;SDS011;8830;50.978;5.058;2022-09-09T04:13:35;5.50;;;1.93;;
17424;SDS011;8830;50.978;5.058;2022-09-09T04:16:04;5.37;;;1.83;;
17424;SDS011;8830;50.978;5.058;2022-09-09T04:18:31;7.17;;;1.30;;
17424;SDS011;8830;50.978;5.058;2022-09-09T04:21:00;4.83;;;1.60;;
17424;SDS011;8830;50.978;5.058;2022-09-09T04:23:28;6.50;;;1.53;;
17424;SDS011;8830;50.978;5.058;2022-09-09T04:25:58;6.23;;;1.70;;
17424;SDS011;8830;50.978;5.058;2022-09-09T04:28:26;4.73;;;1.70;;
17424;SDS011;8830;50.978;5.058;2022-09-09T04:30:55;5.83;;;1.40;;
17424;SDS011;8830;50.978;5.058;2022-09-09T04:33:23;7.20;;;1.67;;
17424;SDS011;8830;50.978;5.058;2022-09-09T04:35:52;7.20;;;2.23;;
17424;SDS011;8830;50.978;5.058;2022-09-09T04:38:20;7.33;;;1.63;;
17424;SDS011;8830;50.978;5.058;2022-09-09T04:40:48;3.97;;;1.40;;
17424;SDS011;8830;50.978;5.058;2022-09-09T04:43:18;7.87;;;1.80;;
17424;SDS011;8830;50.978;5.058;2022-09-09T04:45:46;6.07;;;1.80;;
17424;SDS011;8830;50.978;5.058;2022-09-09T04:48:15;2.97;;;1.30;;
17424;SDS011;8830;50.978;5.058;2022-09-09T04:50:43;6.03;;;1.67;;
17424;SDS011;8830;50.978;5.058;2022-09-09T04:53:11;7.00;;;1.73;;
17424;SDS011;8830;50.978;5.058;2022-09-09T04:55:38;5.37;;;1.70;;
17424;SDS011;8830;50.978;5.058;2022-09-09T04:58:05;7.03;;;2.23;;
17424;SDS011;8830;50.978;5.058;2022-09-09T05:00:35;5.13;;;2.10;;
17424;SDS011;8830;50.978;5.058;2022-09-09T05:03:03;3.70;;;1.53;;
17424;SDS011;8830;50.978;5.058;2022-09-09T05:05:30;5.13;;;1.47;;
17424;SDS011;8830;50.978;5.058;2022-09-09T05:08:00;5.97;;;1.50;;
17424;SDS011;8830;50.978;5.058;2022-09-09T05:10:28;5.70;;;2.23;;
17424;SDS011;8830;50.978;5.058;2022-09-09T05:12:56;3.10;;;1.90;;
17424;SDS011;8830;50.978;5.058;2022-09-09T05:15:23;6.83;;;2.00;;
17424;SDS011;8830;50.978;5.058;2022-09-09T05:17:52;6.17;;;1.60;;
17424;SDS011;8830;50.978;5.058;2022-09-09T05:20:20;7.53;;;1.70;;
17424;SDS011;8830;50.978;5.058;2022-09-09T05:22:52;5.13;;;1.77;;
17424;SDS011;8830;50.978;5.058;2022-09-09T05:25:20;6.10;;;2.17;;
17424;SDS011;8830;50.978;5.058;2022-09-09T05:27:47;5.73;;;2.37;;
17424;SDS011;8830;50.978;5.058;2022-09-09T05:30:20;7.77;;;1.97;;
17424;SDS011;8830;50.978;5.058;2022-09-09T05:32:52;4.40;;;1.93;;
17424;SDS011;8830;50.978;5.058;2022-09-09T05:35:22;5.87;;;1.77;;
17424;SDS011;8830;50.978;5.058;2022-09-09T05:37:51;6.00;;;1.77;;
17424;SDS011;8830;50.978;5.058;2022-09-09T05:40:19;6.83;;;2.47;;
17424;SDS011;8830;50.978;5.058;2022-09-09T05:42:46;6.77;;;2.23;;
17424;SDS011;8830;50.978;5.058;2022-09-09T05:45:14;9.07;;;2.53;;
17424;SDS011;8830;50.978;5.058;2022-09-09T05:47:52;8.57;;;2.13;;
17424;SDS011;8830;50.978;5.058;2022-09-09T05:50:20;4.07;;;1.83;;
17424;SDS011;8830;50.978;5.058;2022-09-09T05:52:47;7.70;;;2.00;;
17424;SDS011;8830;50.978;5.058;2022-09-09T05:55:17;7.47;;;1.60;;
17424;SDS011;8830;50.978;5.058;2022-09-09T05:57:48;8.50;;;1.70;;
17424;SDS011;8830;50.978;5.058;2022-09-09T06:00:17;8.07;;;2.23;;
17424;SDS011;8830;50.978;5.058;2022-09-09T06:02:49;11.00;;;2.70;;
17424;SDS011;8830;50.978;5.058;2022-09-09T06:05:19;4.73;;;1.70;;
17424;SDS011;8830;50.978;5.058;2022-09-09T06:07:47;3.87;;;1.60;;
17424;SDS011;8830;50.978;5.058;2022-09-09T06:10:21;7.87;;;2.00;;
17424;SDS011;8830;50.978;5.058;2022-09-09T06:12:48;8.10;;;1.83;;
17424;SDS011;8830;50.978;5.058;2022-09-09T06:15:23;6.77;;;1.63;;
17424;SDS011;8830;50.978;5.058;2022-09-09T06:17:54;5.07;;;1.87;;
17424;SDS011;8830;50.978;5.058;2022-09-09T06:20:27;7.07;;;1.60;;
17424;SDS011;8830;50.978;5.058;2022-09-09T06:22:57;7.40;;;1.63;;
17424;SDS011;8830;50.978;5.058;2022-09-09T06:25:31;4.60;;;1.50;;
17424;SDS011;8830;50.978;5.058;2022-09-09T06:27:59;4.73;;;1.40;;
17424;SDS011;8830;50.978;5.058;2022-09-09T06:30:27;7.17;;;1.77;;
17424;SDS011;8830;50.978;5.058;2022-09-09T06:33:01;7.25;;;1.92;;
17424;SDS011;8830;50.978;5.058;2022-09-09T06:35:43;4.65;;;1.60;;
17424;SDS011;8830;50.978;5.058;2022-09-09T06:38:22;5.78;;;1.75;;
17424;SDS011;8830;50.978;5.058;2022-09-09T06:40:54;4.30;;;1.60;;
17424;SDS011;8830;50.978;5.058;2022-09-09T06:43:35;5.93;;;1.80;;
17424;SDS011;8830;50.978;5.058;2022-09-09T06:46:08;6.53;;;1.85;;
17424;SDS011;8830;50.978;5.058;2022-09-09T06:48:45;6.17;;;1.40;;
17424;SDS011;8830;50.978;5.058;2022-09-09T06:51:17;3.37;;;1.50;;
17424;SDS011;8830;50.978;5.058;2022-09-09T06:53:53;4.77;;;1.63;;
17424;SDS011;8830;50.978;5.058;2022-09-09T06:56:23;5.20;;;1.60;;
17424;SDS011;8830;50.978;5.058;2022-09-09T06:58:54;4.73;;;1.47;;
17424;SDS011;8830;50.978;5.058;2022-09-09T07:01:25;6.03;;;1.20;;
17424;SDS011;8830;50.978;5.058;2022-09-09T07:03:55;6.23;;;1.63;;
17424;SDS011;8830;50.978;5.058;2022-09-09T07:06:28;6.03;;;1.50;;
17424;SDS011;8830;50.978;5.058;2022-09-09T07:09:03;6.07;;;1.87;;
17424;SDS011;8830;50.978;5.058;2022-09-09T07:11:36;6.40;;;1.50;;
17424;SDS011;8830;50.978;5.058;2022-09-09T07:14:06;5.20;;;1.53;;
17424;SDS011;8830;50.978;5.058;2022-09-09T07:16:39;6.07;;;1.67;;
17424;SDS011;8830;50.978;5.058;2022-09-09T07:19:07;5.60;;;1.83;;
17424;SDS011;8830;50.978;5.058;2022-09-09T07:21:36;5.90;;;1.47;;
17424;SDS011;8830;50.978;5.058;2022-09-09T07:24:04;6.57;;;1.60;;
17424;SDS011;8830;50.978;5.058;2022-09-09T07:26:35;6.30;;;1.33;;
17424;SDS011;8830;50.978;5.058;2022-09-09T07:29:04;5.90;;;1.67;;
17424;SDS011;8830;50.978;5.058;2022-09-09T07:31:32;8.83;;;1.80;;
17424;SDS011;8830;50.978;5.058;2022-09-09T07:34:02;4.73;;;1.57;;
17424;SDS011;8830;50.978;5.058;2022-09-09T07:36:32;2.60;;;1.30;;
17424;SDS011;8830;50.978;5.058;2022-09-09T07:39:02;7.13;;;2.30;;
17424;SDS011;8830;50.978;5.058;2022-09-09T07:41:34;9.03;;;2.70;;
17424;SDS011;8830;50.978;5.058;2022-09-09T07:44:04;10.17;;;2.17;;
17424;SDS011;8830;50.978;5.058;2022-09-09T07:46:32;7.00;;;1.73;;
17424;SDS011;8830;50.978;5.058;2022-09-09T07:49:01;7.33;;;1.73;;
17424;SDS011;8830;50.978;5.058;2022-09-09T07:51:30;6.40;;;1.73;;
17424;SDS011;8830;50.978;5.058;2022-09-09T07:54:03;6.73;;;1.80;;
17424;SDS011;8830;50.978;5.058;2022-09-09T07:56:32;5.90;;;1.67;;
17424;SDS011;8830;50.978;5.058;2022-09-09T07:59:02;4.87;;;1.60;;
17424;SDS011;8830;50.978;5.058;2022-09-09T08:01:32;5.23;;;1.43;;
17424;SDS011;8830;50.978;5.058;2022-09-09T08:04:09;4.27;;;1.50;;
17424;SDS011;8830;50.978;5.058;2022-09-09T08:06:41;7.37;;;1.93;;
17424;SDS011;8830;50.978;5.058;2022-09-09T08:09:13;6.17;;;1.73;;
17424;SDS011;8830;50.978;5.058;2022-09-09T08:11:46;6.50;;;1.90;;
17424;SDS011;8830;50.978;5.058;2022-09-09T08:14:14;3.40;;;1.27;;
17424;SDS011;8830;50.978;5.058;2022-09-09T08:16:43;4.00;;;1.37;;
17424;SDS011;8830;50.978;5.058;2022-09-09T08:19:13;5.20;;;1.53;;
17424;SDS011;8830;50.978;5.058;2022-09-09T08:21:40;6.47;;;1.70;;
17424;SDS011;8830;50.978;5.058;2022-09-09T08:24:10;6.47;;;1.73;;
17424;SDS011;8830;50.978;5.058;2022-09-09T08:26:40;7.03;;;1.80;;
17424;SDS011;8830;50.978;5.058;2022-09-09T08:29:15;6.07;;;1.33;;
17424;SDS011;8830;50.978;5.058;2022-09-09T08:31:48;8.57;;;1.67;;
17424;SDS011;8830;50.978;5.058;2022-09-09T08:34:30;6.23;;;1.90;;
17424;SDS011;8830;50.978;5.058;2022-09-09T08:37:01;6.30;;;1.53;;
17424;SDS011;8830;50.978;5.058;2022-09-09T08:39:30;9.67;;;1.87;;
17424;SDS011;8830;50.978;5.058;2022-09-09T08:42:06;8.03;;;1.93;;
17424;SDS011;8830;50.978;5.058;2022-09-09T08:44:56;4.60;;;1.37;;
17424;SDS011;8830;50.978;5.058;2022-09-09T08:47:39;5.87;;;1.87;;
17424;SDS011;8830;50.978;5.058;2022-09-09T08:50:17;5.60;;;1.17;;
17424;SDS011;8830;50.978;5.058;2022-09-09T08:52:57;6.70;;;1.90;;
17424;SDS011;8830;50.978;5.058;2022-09-09T08:55:35;5.87;;;1.60;;
17424;SDS011;8830;50.978;5.058;2022-09-09T08:58:11;5.97;;;1.43;;
17424;SDS011;8830;50.978;5.058;2022-09-09T09:00:44;4.77;;;1.43;;
17424;SDS011;8830;50.978;5.058;2022-09-09T09:06:01;7.67;;;1.43;;
17424;SDS011;8830;50.978;5.058;2022-09-09T09:08:37;5.07;;;1.53;;
17424;SDS011;8830;50.978;5.058;2022-09-09T09:11:15;7.47;;;1.53;;
17424;SDS011;8830;50.978;5.058;2022-09-09T09:13:45;2.53;;;1.33;;
17424;SDS011;8830;50.978;5.058;2022-09-09T09:16:25;6.07;;;1.80;;
17424;SDS011;8830;50.978;5.058;2022-09-09T09:19:03;8.70;;;1.80;;
17424;SDS011;8830;50.978;5.058;2022-09-09T09:21:48;3.20;;;1.20;;
17424;SDS011;8830;50.978;5.058;2022-09-09T09:24:23;3.43;;;1.90;;
17424;SDS011;8830;50.978;5.058;2022-09-09T09:27:10;3.97;;;1.70;;
17424;SDS011;8830;50.978;5.058;2022-09-09T09:29:44;6.27;;;1.77;;
17424;SDS011;8830;50.978;5.058;2022-09-09T09:32:18;4.77;;;1.20;;
17424;SDS011;8830;50.978;5.058;2022-09-09T09:34:49;4.10;;;2.33;;
17424;SDS011;8830;50.978;5.058;2022-09-09T09:37:26;5.63;;;2.20;;
17424;SDS011;8830;50.978;5.058;2022-09-09T09:40:12;7.43;;;1.97;;
17424;SDS011;8830;50.978;5.058;2022-09-09T09:45:53;6.73;;;2.20;;
17424;SDS011;8830;50.978;5.058;2022-09-09T09:48:28;8.23;;;1.90;;
17424;SDS011;8830;50.978;5.058;2022-09-09T09:50:57;5.90;;;1.90;;
17424;SDS011;8830;50.978;5.058;2022-09-09T09:53:33;8.63;;;2.00;;
17424;SDS011;8830;50.978;5.058;2022-09-09T09:56:02;3.57;;;1.60;;
17424;SDS011;8830;50.978;5.058;2022-09-09T09:58:37;6.23;;;2.23;;
17424;SDS011;8830;50.978;5.058;2022-09-09T10:01:25;5.73;;;1.90;;
17424;SDS011;8830;50.978;5.058;2022-09-09T10:04:15;5.47;;;1.87;;
17424;SDS011;8830;50.978;5.058;2022-09-09T10:06:54;6.80;;;2.40;;
17424;SDS011;8830;50.978;5.058;2022-09-09T10:09:22;8.10;;;2.40;;
17424;SDS011;8830;50.978;5.058;2022-09-09T10:11:53;8.20;;;1.83;;
17424;SDS011;8830;50.978;5.058;2022-09-09T10:14:55;7.47;;;2.17;;
17424;SDS011;8830;50.978;5.058;2022-09-09T10:17:34;7.07;;;1.97;;
17424;SDS011;8830;50.978;5.058;2022-09-09T10:20:16;9.90;;;1.93;;
17424;SDS011;8830;50.978;5.058;2022-09-09T10:22:50;6.37;;;2.33;;
17424;SDS011;8830;50.978;5.058;2022-09-09T10:28:12;5.20;;;1.63;;
17424;SDS011;8830;50.978;5.058;2022-09-09T10:30:52;4.13;;;1.90;;
17424;SDS011;8830;50.978;5.058;2022-09-09T10:33:26;5.97;;;1.83;;
17424;SDS011;8830;50.978;5.058;2022-09-09T10:36:01;5.07;;;2.27;;
17424;SDS011;8830;50.978;5.058;2022-09-09T10:38:38;10.07;;;4.07;;
17424;SDS011;8830;50.978;5.058;2022-09-09T10:41:23;9.57;;;1.83;;
17424;SDS011;8830;50.978;5.058;2022-09-09T10:44:12;6.07;;;1.90;;
17424;SDS011;8830;50.978;5.058;2022-09-09T10:49:55;6.03;;;2.20;;
17424;SDS011;8830;50.978;5.058;2022-09-09T10:52:40;3.17;;;1.60;;
17424;SDS011;8830;50.978;5.058;2022-09-09T10:55:14;4.53;;;2.10;;
17424;SDS011;8830;50.978;5.058;2022-09-09T11:00:21;4.83;;;2.23;;
17424;SDS011;8830;50.978;5.058;2022-09-09T11:02:56;4.37;;;2.00;;
17424;SDS011;8830;50.978;5.058;2022-09-09T11:05:30;7.90;;;2.90;;
17424;SDS011;8830;50.978;5.058;2022-09-09T11:08:02;5.70;;;2.20;;
17424;SDS011;8830;50.978;5.058;2022-09-09T11:10:36;6.27;;;2.17;;
17424;SDS011;8830;50.978;5.058;2022-09-09T11:13:10;7.23;;;1.87;;
17424;SDS011;8830;50.978;5.058;2022-09-09T11:15:55;4.67;;;1.80;;
17424;SDS011;8830;50.978;5.058;2022-09-09T11:18:36;6.97;;;2.07;;
17424;SDS011;8830;50.978;5.058;2022-09-09T11:21:12;4.80;;;1.97;;
17424;SDS011;8830;50.978;5.058;2022-09-09T11:23:57;5.90;;;2.00;;
17424;SDS011;8830;50.978;5.058;2022-09-09T11:26:42;6.50;;;1.93;;
17424;SDS011;8830;50.978;5.058;2022-09-09T11:29:35;5.20;;;1.87;;
17424;SDS011;8830;50.978;5.058;2022-09-09T11:32:29;7.07;;;2.57;;
17424;SDS011;8830;50.978;5.058;2022-09-09T11:35:46;4.80;;;2.17;;
17424;SDS011;8830;50.978;5.058;2022-09-09T11:38:27;6.73;;;1.60;;
17424;SDS011;8830;50.978;5.058;2022-09-09T11:40:57;4.63;;;1.90;;
17424;SDS011;8830;50.978;5.058;2022-09-09T11:43:27;5.70;;;1.90;;
17424;SDS011;8830;50.978;5.058;2022-09-09T11:45:59;5.53;;;1.80;;
17424;SDS011;8830;50.978;5.058;2022-09-09T11:48:33;5.67;;;1.70;;
17424;SDS011;8830;50.978;5.058;2022-09-09T11:51:06;7.00;;;2.97;;
17424;SDS011;8830;50.978;5.058;2022-09-09T11:53:46;6.43;;;2.37;;
17424;SDS011;8830;50.978;5.058;2022-09-09T11:56:26;6.10;;;2.43;;
17424;SDS011;8830;50.978;5.058;2022-09-09T11:58:57;4.40;;;1.53;;
17424;SDS011;8830;50.978;5.058;2022-09-09T12:01:33;4.57;;;1.37;;
17424;SDS011;8830;50.978;5.058;2022-09-09T12:04:06;4.50;;;1.47;;
17424;SDS011;8830;50.978;5.058;2022-09-09T12:07:00;4.17;;;1.70;;
17424;SDS011;8830;50.978;5.058;2022-09-09T12:09:45;5.10;;;1.63;;
17424;SDS011;8830;50.978;5.058;2022-09-09T12:12:30;5.27;;;1.50;;
17424;SDS011;8830;50.978;5.058;2022-09-09T12:15:00;4.43;;;1.30;;
17424;SDS011;8830;50.978;5.058;2022-09-09T12:17:48;6.57;;;1.63;;
17424;SDS011;8830;50.978;5.058;2022-09-09T12:20:17;3.93;;;1.30;;
17424;SDS011;8830;50.978;5.058;2022-09-09T12:25:47;5.93;;;1.40;;
17424;SDS011;8830;50.978;5.058;2022-09-09T12:28:22;2.03;;;1.00;;
17424;SDS011;8830;50.978;5.058;2022-09-09T12:30:54;4.88;;;1.05;;
17424;SDS011;8830;50.978;5.058;2022-09-09T12:33:33;4.95;;;1.50;;
17424;SDS011;8830;50.978;5.058;2022-09-09T12:36:01;4.00;;;1.00;;
17424;SDS011;8830;50.978;5.058;2022-09-09T12:38:34;2.63;;;1.20;;
17424;SDS011;8830;50.978;5.058;2022-09-09T12:41:04;2.28;;;1.25;;
17424;SDS011;8830;50.978;5.058;2022-09-09T12:43:31;3.58;;;1.40;;
17424;SDS011;8830;50.978;5.058;2022-09-09T12:45:59;2.65;;;1.40;;
17424;SDS011;8830;50.978;5.058;2022-09-09T12:48:34;3.70;;;1.42;;
17424;SDS011;8830;50.978;5.058;2022-09-09T12:51:06;2.72;;;1.27;;
17424;SDS011;8830;50.978;5.058;2022-09-09T12:53:47;6.45;;;1.85;;
17424;SDS011;8830;50.978;5.058;2022-09-09T12:56:19;3.10;;;1.25;;
17424;SDS011;8830;50.978;5.058;2022-09-09T12:58:51;5.68;;;1.15;;
17424;SDS011;8830;50.978;5.058;2022-09-09T13:01:21;3.65;;;1.10;;
17424;SDS011;8830;50.978;5.058;2022-09-09T13:03:51;3.38;;;1.10;;
17424;SDS011;8830;50.978;5.058;2022-09-09T13:06:27;3.97;;;1.23;;
17424;SDS011;8830;50.978;5.058;2022-09-09T13:09:01;3.97;;;1.42;;
17424;SDS011;8830;50.978;5.058;2022-09-09T13:11:31;4.40;;;0.80;;
17424;SDS011;8830;50.978;5.058;2022-09-09T13:14:12;2.53;;;1.00;;
17424;SDS011;8830;50.978;5.058;2022-09-09T13:16:54;3.08;;;1.00;;
17424;SDS011;8830;50.978;5.058;2022-09-09T13:19:29;3.20;;;1.00;;
17424;SDS011;8830;50.978;5.058;2022-09-09T13:22:11;2.15;;;0.95;;
17424;SDS011;8830;50.978;5.058;2022-09-09T13:25:17;2.33;;;1.15;;
17424;SDS011;8830;50.978;5.058;2022-09-09T13:28:00;5.50;;;1.02;;
17424;SDS011;8830;50.978;5.058;2022-09-09T13:30:34;3.28;;;0.93;;
17424;SDS011;8830;50.978;5.058;2022-09-09T13:33:28;3.47;;;1.50;;
17424;SDS011;8830;50.978;5.058;2022-09-09T13:36:13;3.55;;;1.10;;
17424;SDS011;8830;50.978;5.058;2022-09-09T13:39:22;2.63;;;1.17;;
17424;SDS011;8830;50.978;5.058;2022-09-09T13:42:19;2.70;;;1.17;;
17424;SDS011;8830;50.978;5.058;2022-09-09T13:47:55;4.60;;;1.40;;
17424;SDS011;8830;50.978;5.058;2022-09-09T13:50:34;3.47;;;1.45;;
17424;SDS011;8830;50.978;5.058;2022-09-09T13:53:09;5.22;;;1.00;;
17424;SDS011;8830;50.978;5.058;2022-09-09T13:55:38;3.22;;;0.90;;
17424;SDS011;8830;50.978;5.058;2022-09-09T13:58:16;5.07;;;1.00;;
17424;SDS011;8830;50.978;5.058;2022-09-09T14:00:44;7.63;;;1.20;;
17424;SDS011;8830;50.978;5.058;2022-09-09T14:03:12;6.57;;;1.42;;
17424;SDS011;8830;50.978;5.058;2022-09-09T14:05:43;2.08;;;1.00;;
17424;SDS011;8830;50.978;5.058;2022-09-09T14:08:15;4.57;;;1.15;;
17424;SDS011;8830;50.978;5.058;2022-09-09T14:10:55;2.42;;;0.93;;
17424;SDS011;8830;50.978;5.058;2022-09-09T14:13:29;2.25;;;0.75;;
17424;SDS011;8830;50.978;5.058;2022-09-09T14:15:59;5.00;;;1.02;;
17424;SDS011;8830;50.978;5.058;2022-09-09T14:18:27;1.88;;;0.90;;
17424;SDS011;8830;50.978;5.058;2022-09-09T14:20:58;2.88;;;0.98;;
17424;SDS011;8830;50.978;5.058;2022-09-09T14:23:28;3.50;;;1.60;;
17424;SDS011;8830;50.978;5.058;2022-09-09T14:25:57;3.10;;;0.75;;
17424;SDS011;8830;50.978;5.058;2022-09-09T14:28:28;3.88;;;1.35;;
17424;SDS011;8830;50.978;5.058;2022-09-09T14:30:58;2.55;;;0.80;;
17424;SDS011;8830;50.978;5.058;2022-09-09T14:33:30;2.20;;;0.73;;
17424;SDS011;8830;50.978;5.058;2022-09-09T14:36:08;3.30;;;1.00;;
17424;SDS011;8830;50.978;5.058;2022-09-09T14:38:36;2.38;;;0.93;;
17424;SDS011;8830;50.978;5.058;2022-09-09T14:41:04;2.13;;;0.88;;
17424;SDS011;8830;50.978;5.058;2022-09-09T14:43:37;2.03;;;0.75;;
17424;SDS011;8830;50.978;5.058;2022-09-09T14:46:06;4.30;;;1.20;;
17424;SDS011;8830;50.978;5.058;2022-09-09T14:48:39;2.20;;;1.10;;
17424;SDS011;8830;50.978;5.058;2022-09-09T14:51:28;1.13;;;0.60;;
17424;SDS011;8830;50.978;5.058;2022-09-09T14:57:44;3.60;;;1.00;;
17424;SDS011;8830;50.978;5.058;2022-09-09T15:03:38;4.53;;;0.80;;
17424;SDS011;8830;50.978;5.058;2022-09-09T15:06:07;3.65;;;0.95;;
17424;SDS011;8830;50.978;5.058;2022-09-09T15:08:37;4.68;;;1.08;;
17424;SDS011;8830;50.978;5.058;2022-09-09T15:11:05;2.65;;;0.82;;
17424;SDS011;8830;50.978;5.058;2022-09-09T15:13:36;4.80;;;1.05;;
17424;SDS011;8830;50.978;5.058;2022-09-09T15:16:05;4.75;;;1.27;;
17424;SDS011;8830;50.978;5.058;2022-09-09T15:18:38;3.53;;;0.90;;
17424;SDS011;8830;50.978;5.058;2022-09-09T15:21:08;3.40;;;1.02;;
17424;SDS011;8830;50.978;5.058;2022-09-09T15:23:35;1.13;;;0.70;;
17424;SDS011;8830;50.978;5.058;2022-09-09T15:26:03;3.85;;;1.02;;
17424;SDS011;8830;50.978;5.058;2022-09-09T15:28:31;2.17;;;0.95;;
17424;SDS011;8830;50.978;5.058;2022-09-09T15:31:06;3.55;;;1.20;;
17424;SDS011;8830;50.978;5.058;2022-09-09T15:33:35;2.17;;;1.05;;
17424;SDS011;8830;50.978;5.058;2022-09-09T15:36:14;2.47;;;1.30;;
17424;SDS011;8830;50.978;5.058;2022-09-09T15:38:42;2.08;;;0.90;;
17424;SDS011;8830;50.978;5.058;2022-09-09T15:41:09;1.92;;;0.95;;
17424;SDS011;8830;50.978;5.058;2022-09-09T15:43:37;2.13;;;1.35;;
17424;SDS011;8830;50.978;5.058;2022-09-09T15:46:20;3.05;;;1.60;;
17424;SDS011;8830;50.978;5.058;2022-09-09T15:48:56;2.88;;;1.00;;
17424;SDS011;8830;50.978;5.058;2022-09-09T15:51:24;2.88;;;1.13;;
17424;SDS011;8830;50.978;5.058;2022-09-09T15:53:56;3.17;;;1.13;;
17424;SDS011;8830;50.978;5.058;2022-09-09T15:56:24;2.53;;;1.23;;
17424;SDS011;8830;50.978;5.058;2022-09-09T15:58:54;9.02;;;1.67;;
17424;SDS011;8830;50.978;5.058;2022-09-09T16:01:23;2.95;;;1.33;;
17424;SDS011;8830;50.978;5.058;2022-09-09T16:03:51;2.10;;;0.95;;